sensor_id;sensor_type;location;lat;lon;timestamp;P1;durP1;ratioP1;P2;durP2;ratioP2
7450;SDS011;3767;42.688;23.360;2023-01-24T08:08:40;6.37;;;4.73;;
7450;SDS011;3767;42.688;23.360;2023-01-24T08:11:07;8.40;;;5.40;;
7450;SDS011;3767;42.688;23.360;2023-01-24T08:13:36;7.63;;;5.63;;
7450;SDS011;3767;42.688;23.360;2023-01-24T08:16:02;9.77;;;5.83;;
7450;SDS011;3767;42.688;23.360;2023-01-24T08:18:29;9.90;;;5.03;;
7450;SDS011;3767;42.688;23.360;2023-01-24T08:20:55;9.10;;;5.33;;
7450;SDS011;3767;42.688;23.360;2023-01-24T08:23:22;7.03;;;5.40;;
7450;SDS011;3767;42.688;23.360;2023-01-24T08:25:50;6.37;;;4.67;;
7450;SDS011;3767;42.688;23.360;2023-01-24T08:28:16;6.50;;;4.67;;
7450;SDS011;3767;42.688;23.360;2023-01-24T08:30:43;6.57;;;4.17;;
7450;SDS011;3767;42.688;23.360;2023-01-24T08:33:09;4.63;;;4.00;;
7450;SDS011;3767;42.688;23.360;2023-01-24T08:35:42;7.63;;;3.40;;
7450;SDS011;3767;42.688;23.360;2023-01-24T08:38:08;5.27;;;2.90;;
7450;SDS011;3767;42.688;23.360;2023-01-24T08:40:35;4.07;;;3.33;;
7450;SDS011;3767;42.688;23.360;2023-01-24T08:43:03;5.07;;;3.60;;
7450;SDS011;3767;42.688;23.360;2023-01-24T08:45:29;4.40;;;3.80;;
7450;SDS011;3767;42.688;23.360;2023-01-24T08:47:56;3.80;;;3.40;;
7450;SDS011;3767;42.688;23.360;2023-01-24T08:50:22;4.07;;;3.70;;
7450;SDS011;3767;42.688;23.360;2023-01-24T08:52:49;4.37;;;3.20;;
7450;SDS011;3767;42.688;23.360;2023-01-24T08:55:19;5.97;;;3.70;;
7450;SDS011;3767;42.688;23.360;2023-01-24T08:57:46;4.57;;;4.10;;
7450;SDS011;3767;42.688;23.360;2023-01-24T09:02:41;3.60;;;3.30;;
7450;SDS011;3767;42.688;23.360;2023-01-24T09:05:08;3.93;;;3.60;;
7450;SDS011;3767;42.688;23.360;2023-01-24T09:07:35;7.20;;;4.67;;
7450;SDS011;3767;42.688;23.360;2023-01-24T09:10:02;6.07;;;4.13;;
7450;SDS011;3767;42.688;23.360;2023-01-24T09:12:29;6.03;;;4.33;;
7450;SDS011;3767;42.688;23.360;2023-01-24T09:14:56;5.80;;;4.07;;
7450;SDS011;3767;42.688;23.360;2023-01-24T09:17:23;8.57;;;5.90;;
7450;SDS011;3767;42.688;23.360;2023-01-24T09:19:51;7.00;;;4.87;;
7450;SDS011;3767;42.688;23.360;2023-01-24T09:22:17;7.63;;;5.03;;
7450;SDS011;3767;42.688;23.360;2023-01-24T09:24:44;9.93;;;6.13;;
7450;SDS011;3767;42.688;23.360;2023-01-24T09:27:10;7.57;;;5.87;;
7450;SDS011;3767;42.688;23.360;2023-01-24T09:29:37;5.47;;;4.77;;
7450;SDS011;3767;42.688;23.360;2023-01-24T09:32:04;5.33;;;4.77;;
7450;SDS011;3767;42.688;23.360;2023-01-24T09:34:30;5.10;;;4.30;;
7450;SDS011;3767;42.688;23.360;2023-01-24T09:36:58;6.43;;;5.27;;
7450;SDS011;3767;42.688;23.360;2023-01-24T09:39:24;4.10;;;3.80;;
7450;SDS011;3767;42.688;23.360;2023-01-24T09:41:55;5.13;;;4.33;;
7450;SDS011;3767;42.688;23.360;2023-01-24T09:44:25;4.23;;;3.83;;
7450;SDS011;3767;42.688;23.360;2023-01-24T09:46:54;4.27;;;3.83;;
7450;SDS011;3767;42.688;23.360;2023-01-24T09:49:21;5.90;;;4.43;;
7450;SDS011;3767;42.688;23.360;2023-01-24T09:51:50;2.30;;;2.20;;
7450;SDS011;3767;42.688;23.360;2023-01-24T09:54:21;3.50;;;3.20;;
7450;SDS011;3767;42.688;23.360;2023-01-24T09:56:50;6.70;;;3.50;;
7450;SDS011;3767;42.688;23.360;2023-01-24T09:59:21;3.40;;;2.70;;
7450;SDS011;3767;42.688;23.360;2023-01-24T10:01:48;2.60;;;2.40;;
7450;SDS011;3767;42.688;23.360;2023-01-24T10:04:23;3.23;;;2.93;;
7450;SDS011;3767;42.688;23.360;2023-01-24T10:07:07;3.43;;;3.13;;
7450;SDS011;3767;42.688;23.360;2023-01-24T10:09:43;4.70;;;3.80;;
7450;SDS011;3767;42.688;23.360;2023-01-24T10:12:13;4.10;;;2.80;;
7450;SDS011;3767;42.688;23.360;2023-01-24T10:14:44;2.17;;;2.07;;
7450;SDS011;3767;42.688;23.360;2023-01-24T10:20:10;2.50;;;2.40;;
7450;SDS011;3767;42.688;23.360;2023-01-24T10:25:27;3.40;;;3.10;;
7450;SDS011;3767;42.688;23.360;2023-01-24T10:27:55;2.50;;;2.30;;
7450;SDS011;3767;42.688;23.360;2023-01-24T10:30:26;2.13;;;1.90;;
7450;SDS011;3767;42.688;23.360;2023-01-24T10:32:55;2.33;;;2.13;;
7450;SDS011;3767;42.688;23.360;2023-01-24T10:35:26;3.10;;;2.80;;
7450;SDS011;3767;42.688;23.360;2023-01-24T10:37:55;2.20;;;2.10;;
7450;SDS011;3767;42.688;23.360;2023-01-24T10:40:24;2.50;;;2.30;;
7450;SDS011;3767;42.688;23.360;2023-01-24T10:42:52;2.27;;;2.07;;
7450;SDS011;3767;42.688;23.360;2023-01-24T10:45:29;2.63;;;2.43;;
7450;SDS011;3767;42.688;23.360;2023-01-24T10:48:02;2.60;;;2.40;;
7450;SDS011;3767;42.688;23.360;2023-01-24T10:50:34;2.70;;;2.17;;
7450;SDS011;3767;42.688;23.360;2023-01-24T10:53:11;3.80;;;2.93;;
7450;SDS011;3767;42.688;23.360;2023-01-24T10:55:37;1.90;;;1.80;;
7450;SDS011;3767;42.688;23.360;2023-01-24T10:58:17;2.53;;;1.60;;
7450;SDS011;3767;42.688;23.360;2023-01-24T11:00:45;1.97;;;1.80;;
7450;SDS011;3767;42.688;23.360;2023-01-24T11:03:16;3.10;;;2.80;;
7450;SDS011;3767;42.688;23.360;2023-01-24T11:05:44;4.47;;;2.97;;
7450;SDS011;3767;42.688;23.360;2023-01-24T11:08:15;3.10;;;2.80;;
7450;SDS011;3767;42.688;23.360;2023-01-24T11:10:42;2.37;;;2.17;;
7450;SDS011;3767;42.688;23.360;2023-01-24T11:13:21;2.80;;;2.60;;
7450;SDS011;3767;42.688;23.360;2023-01-24T11:15:51;3.00;;;2.67;;
7450;SDS011;3767;42.688;23.360;2023-01-24T11:18:19;2.33;;;2.13;;
7450;SDS011;3767;42.688;23.360;2023-01-24T11:20:46;3.27;;;2.57;;
7450;SDS011;3767;42.688;23.360;2023-01-24T11:23:15;2.43;;;2.27;;
7450;SDS011;3767;42.688;23.360;2023-01-24T11:25:50;2.00;;;1.73;;
7450;SDS011;3767;42.688;23.360;2023-01-24T11:28:23;3.63;;;3.33;;
7450;SDS011;3767;42.688;23.360;2023-01-24T11:30:50;3.10;;;2.80;;
7450;SDS011;3767;42.688;23.360;2023-01-24T11:33:22;2.70;;;2.50;;
7450;SDS011;3767;42.688;23.360;2023-01-24T11:35:50;3.10;;;2.77;;
7450;SDS011;3767;42.688;23.360;2023-01-24T11:38:21;2.83;;;2.50;;
7450;SDS011;3767;42.688;23.360;2023-01-24T11:40:52;2.73;;;2.40;;
7450;SDS011;3767;42.688;23.360;2023-01-24T11:43:26;3.03;;;2.73;;
7450;SDS011;3767;42.688;23.360;2023-01-24T11:48:56;3.10;;;2.80;;
7450;SDS011;3767;42.688;23.360;2023-01-24T11:51:26;2.63;;;2.43;;
7450;SDS011;3767;42.688;23.360;2023-01-24T11:53:59;3.87;;;3.27;;
7450;SDS011;3767;42.688;23.360;2023-01-24T11:56:29;8.00;;;5.13;;
7450;SDS011;3767;42.688;23.360;2023-01-24T12:01:52;6.23;;;3.50;;
7450;SDS011;3767;42.688;23.360;2023-01-24T12:04:24;3.67;;;3.20;;
7450;SDS011;3767;42.688;23.360;2023-01-24T12:06:57;2.53;;;2.33;;
7450;SDS011;3767;42.688;23.360;2023-01-24T12:09:26;3.07;;;1.90;;
7450;SDS011;3767;42.688;23.360;2023-01-24T12:11:57;2.40;;;2.30;;
7450;SDS011;3767;42.688;23.360;2023-01-24T12:14:41;2.20;;;2.00;;
7450;SDS011;3767;42.688;23.360;2023-01-24T12:17:15;3.17;;;2.80;;
7450;SDS011;3767;42.688;23.360;2023-01-24T12:19:48;2.30;;;2.17;;
7450;SDS011;3767;42.688;23.360;2023-01-24T12:22:17;2.60;;;2.40;;
7450;SDS011;3767;42.688;23.360;2023-01-24T12:24:46;2.67;;;2.47;;
7450;SDS011;3767;42.688;23.360;2023-01-24T12:27:14;4.37;;;3.27;;
7450;SDS011;3767;42.688;23.360;2023-01-24T12:29:42;3.50;;;3.20;;
7450;SDS011;3767;42.688;23.360;2023-01-24T12:32:11;3.97;;;3.27;;
7450;SDS011;3767;42.688;23.360;2023-01-24T12:34:43;4.50;;;3.03;;
7450;SDS011;3767;42.688;23.360;2023-01-24T12:37:13;4.30;;;2.70;;
7450;SDS011;3767;42.688;23.360;2023-01-24T12:39:43;3.23;;;2.40;;
7450;SDS011;3767;42.688;23.360;2023-01-24T12:42:14;2.93;;;2.67;;
7450;SDS011;3767;42.688;23.360;2023-01-24T12:44:42;2.80;;;2.60;;
7450;SDS011;3767;42.688;23.360;2023-01-24T12:47:16;4.73;;;2.87;;
7450;SDS011;3767;42.688;23.360;2023-01-24T12:49:51;2.87;;;2.63;;
7450;SDS011;3767;42.688;23.360;2023-01-24T12:52:20;4.70;;;3.40;;
7450;SDS011;3767;42.688;23.360;2023-01-24T12:54:50;2.83;;;2.60;;
7450;SDS011;3767;42.688;23.360;2023-01-24T12:57:19;2.23;;;2.07;;
7450;SDS011;3767;42.688;23.360;2023-01-24T12:59:50;3.40;;;3.10;;
7450;SDS011;3767;42.688;23.360;2023-01-24T13:02:23;2.60;;;2.33;;
7450;SDS011;3767;42.688;23.360;2023-01-24T13:04:57;2.00;;;1.90;;
7450;SDS011;3767;42.688;23.360;2023-01-24T13:07:30;2.53;;;2.33;;
7450;SDS011;3767;42.688;23.360;2023-01-24T13:10:01;3.73;;;3.43;;
7450;SDS011;3767;42.688;23.360;2023-01-24T13:12:29;2.77;;;2.47;;
7450;SDS011;3767;42.688;23.360;2023-01-24T13:14:58;4.03;;;3.43;;
7450;SDS011;3767;42.688;23.360;2023-01-24T13:17:39;7.90;;;4.90;;
7450;SDS011;3767;42.688;23.360;2023-01-24T13:20:18;8.93;;;3.37;;
7450;SDS011;3767;42.688;23.360;2023-01-24T13:22:50;3.23;;;3.00;;
7450;SDS011;3767;42.688;23.360;2023-01-24T13:25:27;11.03;;;3.97;;
7450;SDS011;3767;42.688;23.360;2023-01-24T13:27:58;2.70;;;2.50;;
7450;SDS011;3767;42.688;23.360;2023-01-24T13:30:32;5.20;;;3.03;;
7450;SDS011;3767;42.688;23.360;2023-01-24T13:33:01;2.37;;;2.17;;
7450;SDS011;3767;42.688;23.360;2023-01-24T13:35:28;5.83;;;2.63;;
7450;SDS011;3767;42.688;23.360;2023-01-24T13:38:01;2.70;;;2.50;;
7450;SDS011;3767;42.688;23.360;2023-01-24T13:40:29;2.83;;;2.63;;
7450;SDS011;3767;42.688;23.360;2023-01-24T13:43:00;2.47;;;2.10;;
7450;SDS011;3767;42.688;23.360;2023-01-24T13:51:30;2.40;;;2.30;;
7450;SDS011;3767;42.688;23.360;2023-01-24T13:53:59;2.67;;;2.47;;
7450;SDS011;3767;42.688;23.360;2023-01-24T13:56:26;5.33;;;2.50;;
7450;SDS011;3767;42.688;23.360;2023-01-24T13:58:53;4.40;;;3.10;;
7450;SDS011;3767;42.688;23.360;2023-01-24T14:01:20;2.50;;;2.40;;
7450;SDS011;3767;42.688;23.360;2023-01-24T14:03:53;2.47;;;2.27;;
7450;SDS011;3767;42.688;23.360;2023-01-24T14:06:20;1.83;;;1.73;;
7450;SDS011;3767;42.688;23.360;2023-01-24T14:08:58;1.90;;;1.77;;
7450;SDS011;3767;42.688;23.360;2023-01-24T14:11:40;2.13;;;2.00;;
7450;SDS011;3767;42.688;23.360;2023-01-24T14:14:32;2.27;;;2.13;;
7450;SDS011;3767;42.688;23.360;2023-01-24T14:16:59;2.30;;;2.10;;
7450;SDS011;3767;42.688;23.360;2023-01-24T14:19:28;3.00;;;2.80;;
7450;SDS011;3767;42.688;23.360;2023-01-24T14:21:56;2.73;;;2.60;;
7450;SDS011;3767;42.688;23.360;2023-01-24T14:24:26;3.87;;;3.57;;
7450;SDS011;3767;42.688;23.360;2023-01-24T14:26:55;2.50;;;2.40;;
7450;SDS011;3767;42.688;23.360;2023-01-24T14:29:25;2.73;;;2.53;;
7450;SDS011;3767;42.688;23.360;2023-01-24T14:31:55;5.43;;;4.50;;
7450;SDS011;3767;42.688;23.360;2023-01-24T14:34:26;4.27;;;3.87;;
7450;SDS011;3767;42.688;23.360;2023-01-24T14:36:57;6.97;;;4.70;;
7450;SDS011;3767;42.688;23.360;2023-01-24T14:39:26;12.67;;;7.00;;
7450;SDS011;3767;42.688;23.360;2023-01-24T14:41:53;9.53;;;6.03;;
7450;SDS011;3767;42.688;23.360;2023-01-24T14:44:22;6.60;;;5.10;;
7450;SDS011;3767;42.688;23.360;2023-01-24T14:46:53;4.47;;;3.70;;
7450;SDS011;3767;42.688;23.360;2023-01-24T14:49:27;4.73;;;3.73;;
7450;SDS011;3767;42.688;23.360;2023-01-24T14:51:54;2.83;;;2.63;;
7450;SDS011;3767;42.688;23.360;2023-01-24T14:54:21;3.70;;;3.40;;
7450;SDS011;3767;42.688;23.360;2023-01-24T14:56:48;6.27;;;3.93;;
7450;SDS011;3767;42.688;23.360;2023-01-24T14:59:15;5.80;;;3.70;;
7450;SDS011;3767;42.688;23.360;2023-01-24T15:01:44;5.30;;;4.07;;
7450;SDS011;3767;42.688;23.360;2023-01-24T15:04:24;4.30;;;3.33;;
7450;SDS011;3767;42.688;23.360;2023-01-24T15:09:38;5.43;;;4.00;;
7450;SDS011;3767;42.688;23.360;2023-01-24T15:12:18;4.83;;;3.80;;
7450;SDS011;3767;42.688;23.360;2023-01-24T15:14:48;4.17;;;3.00;;
7450;SDS011;3767;42.688;23.360;2023-01-24T15:17:18;3.13;;;2.67;;
7450;SDS011;3767;42.688;23.360;2023-01-24T15:19:47;3.10;;;2.50;;
7450;SDS011;3767;42.688;23.360;2023-01-24T15:22:16;3.47;;;3.17;;
7450;SDS011;3767;42.688;23.360;2023-01-24T15:24:47;4.60;;;3.20;;
7450;SDS011;3767;42.688;23.360;2023-01-24T15:27:21;3.97;;;3.57;;
7450;SDS011;3767;42.688;23.360;2023-01-24T15:29:51;4.00;;;3.60;;
7450;SDS011;3767;42.688;23.360;2023-01-24T15:32:41;4.03;;;3.60;;
7450;SDS011;3767;42.688;23.360;2023-01-24T15:35:27;5.13;;;3.80;;
7450;SDS011;3767;42.688;23.360;2023-01-24T15:38:09;5.97;;;4.17;;
7450;SDS011;3767;42.688;23.360;2023-01-24T15:40:37;7.17;;;4.33;;
7450;SDS011;3767;42.688;23.360;2023-01-24T15:43:11;9.77;;;4.73;;
7450;SDS011;3767;42.688;23.360;2023-01-24T15:45:58;7.40;;;4.83;;
7450;SDS011;3767;42.688;23.360;2023-01-24T15:48:40;4.23;;;3.60;;
7450;SDS011;3767;42.688;23.360;2023-01-24T15:51:24;6.60;;;3.80;;
7450;SDS011;3767;42.688;23.360;2023-01-24T15:53:52;7.93;;;4.40;;
7450;SDS011;3767;42.688;23.360;2023-01-24T15:56:20;7.27;;;4.20;;
7450;SDS011;3767;42.688;23.360;2023-01-24T15:58:47;4.70;;;3.83;;
7450;SDS011;3767;42.688;23.360;2023-01-24T16:01:14;8.00;;;4.57;;
7450;SDS011;3767;42.688;23.360;2023-01-24T16:03:42;5.97;;;3.60;;
7450;SDS011;3767;42.688;23.360;2023-01-24T16:06:09;5.27;;;3.37;;
7450;SDS011;3767;42.688;23.360;2023-01-24T16:08:35;2.80;;;2.60;;
7450;SDS011;3767;42.688;23.360;2023-01-24T16:11:02;3.90;;;3.20;;
7450;SDS011;3767;42.688;23.360;2023-01-24T16:13:30;2.77;;;2.60;;
7450;SDS011;3767;42.688;23.360;2023-01-24T16:15:57;4.13;;;2.87;;
7450;SDS011;3767;42.688;23.360;2023-01-24T16:18:24;4.50;;;3.53;;
7450;SDS011;3767;42.688;23.360;2023-01-24T16:20:52;5.70;;;3.53;;
7450;SDS011;3767;42.688;23.360;2023-01-24T16:23:19;6.53;;;4.07;;
7450;SDS011;3767;42.688;23.360;2023-01-24T16:25:47;7.30;;;5.00;;
7450;SDS011;3767;42.688;23.360;2023-01-24T16:28:16;7.30;;;4.30;;
7450;SDS011;3767;42.688;23.360;2023-01-24T16:30:43;6.90;;;4.93;;
7450;SDS011;3767;42.688;23.360;2023-01-24T16:33:12;12.87;;;6.40;;
7450;SDS011;3767;42.688;23.360;2023-01-24T16:35:38;21.17;;;8.87;;
7450;SDS011;3767;42.688;23.360;2023-01-24T16:38:08;18.17;;;9.50;;
7450;SDS011;3767;42.688;23.360;2023-01-24T16:40:35;19.30;;;7.90;;
7450;SDS011;3767;42.688;23.360;2023-01-24T16:43:02;16.03;;;9.20;;
7450;SDS011;3767;42.688;23.360;2023-01-24T16:45:29;23.83;;;8.70;;
7450;SDS011;3767;42.688;23.360;2023-01-24T16:47:56;18.70;;;9.73;;
7450;SDS011;3767;42.688;23.360;2023-01-24T16:50:23;13.43;;;8.03;;
7450;SDS011;3767;42.688;23.360;2023-01-24T16:52:51;9.13;;;6.07;;
7450;SDS011;3767;42.688;23.360;2023-01-24T16:55:19;11.93;;;6.30;;
7450;SDS011;3767;42.688;23.360;2023-01-24T16:57:46;9.20;;;5.80;;
7450;SDS011;3767;42.688;23.360;2023-01-24T17:00:13;12.27;;;6.83;;
7450;SDS011;3767;42.688;23.360;2023-01-24T17:02:40;15.73;;;6.83;;
7450;SDS011;3767;42.688;23.360;2023-01-24T17:05:07;8.40;;;5.07;;
7450;SDS011;3767;42.688;23.360;2023-01-24T17:07:34;9.93;;;5.60;;
7450;SDS011;3767;42.688;23.360;2023-01-24T17:10:00;12.53;;;5.80;;
7450;SDS011;3767;42.688;23.360;2023-01-24T17:12:29;7.00;;;4.70;;
7450;SDS011;3767;42.688;23.360;2023-01-24T17:14:55;14.40;;;7.03;;
7450;SDS011;3767;42.688;23.360;2023-01-24T17:17:23;10.37;;;5.57;;
7450;SDS011;3767;42.688;23.360;2023-01-24T17:19:50;12.40;;;6.23;;
7450;SDS011;3767;42.688;23.360;2023-01-24T17:22:16;9.03;;;5.27;;
7450;SDS011;3767;42.688;23.360;2023-01-24T17:24:43;20.60;;;8.53;;
7450;SDS011;3767;42.688;23.360;2023-01-24T17:27:10;15.90;;;7.80;;
7450;SDS011;3767;42.688;23.360;2023-01-24T17:29:38;22.30;;;8.93;;
7450;SDS011;3767;42.688;23.360;2023-01-24T17:32:04;19.50;;;8.87;;
7450;SDS011;3767;42.688;23.360;2023-01-24T17:34:31;16.43;;;7.70;;
7450;SDS011;3767;42.688;23.360;2023-01-24T17:36:57;18.80;;;9.17;;
7450;SDS011;3767;42.688;23.360;2023-01-24T17:39:24;16.80;;;8.67;;
7450;SDS011;3767;42.688;23.360;2023-01-24T17:41:50;20.67;;;10.10;;
7450;SDS011;3767;42.688;23.360;2023-01-24T17:44:17;14.97;;;8.40;;
7450;SDS011;3767;42.688;23.360;2023-01-24T17:46:45;17.67;;;8.90;;
7450;SDS011;3767;42.688;23.360;2023-01-24T17:49:12;28.97;;;12.17;;
7450;SDS011;3767;42.688;23.360;2023-01-24T17:51:38;18.83;;;9.27;;
7450;SDS011;3767;42.688;23.360;2023-01-24T17:54:07;16.97;;;8.33;;
7450;SDS011;3767;42.688;23.360;2023-01-24T17:56:34;16.97;;;7.30;;
7450;SDS011;3767;42.688;23.360;2023-01-24T17:59:01;20.90;;;8.60;;
7450;SDS011;3767;42.688;23.360;2023-01-24T18:01:28;17.37;;;8.10;;
7450;SDS011;3767;42.688;23.360;2023-01-24T18:03:56;14.27;;;7.13;;
7450;SDS011;3767;42.688;23.360;2023-01-24T18:06:22;29.10;;;10.93;;
7450;SDS011;3767;42.688;23.360;2023-01-24T18:08:49;19.27;;;8.20;;
7450;SDS011;3767;42.688;23.360;2023-01-24T18:11:16;28.40;;;10.43;;
7450;SDS011;3767;42.688;23.360;2023-01-24T18:13:43;18.93;;;8.30;;
7450;SDS011;3767;42.688;23.360;2023-01-24T18:16:10;98.97;;;39.97;;
7450;SDS011;3767;42.688;23.360;2023-01-24T18:18:37;41.90;;;18.90;;
7450;SDS011;3767;42.688;23.360;2023-01-24T18:21:09;16.30;;;7.63;;
7450;SDS011;3767;42.688;23.360;2023-01-24T18:23:36;8.17;;;5.73;;
7450;SDS011;3767;42.688;23.360;2023-01-24T18:26:03;7.83;;;5.23;;
7450;SDS011;3767;42.688;23.360;2023-01-24T18:28:30;11.67;;;6.20;;
7450;SDS011;3767;42.688;23.360;2023-01-24T18:30:56;7.70;;;5.50;;
7450;SDS011;3767;42.688;23.360;2023-01-24T18:33:23;10.63;;;6.43;;
7450;SDS011;3767;42.688;23.360;2023-01-24T18:35:50;8.93;;;5.43;;
7450;SDS011;3767;42.688;23.360;2023-01-24T18:38:17;10.87;;;6.17;;
7450;SDS011;3767;42.688;23.360;2023-01-24T18:40:44;8.57;;;5.50;;
7450;SDS011;3767;42.688;23.360;2023-01-24T18:43:11;10.13;;;6.50;;
7450;SDS011;3767;42.688;23.360;2023-01-24T18:45:37;20.67;;;9.37;;
7450;SDS011;3767;42.688;23.360;2023-01-24T18:48:04;7.80;;;5.03;;
7450;SDS011;3767;42.688;23.360;2023-01-24T18:50:30;6.07;;;4.47;;
7450;SDS011;3767;42.688;23.360;2023-01-24T18:52:57;4.17;;;3.77;;
7450;SDS011;3767;42.688;23.360;2023-01-24T18:55:25;8.73;;;5.23;;
7450;SDS011;3767;42.688;23.360;2023-01-24T18:57:53;6.17;;;4.70;;
7450;SDS011;3767;42.688;23.360;2023-01-24T19:00:19;7.87;;;5.50;;
7450;SDS011;3767;42.688;23.360;2023-01-24T19:02:48;10.37;;;5.90;;
7450;SDS011;3767;42.688;23.360;2023-01-24T19:05:15;6.40;;;4.20;;
7450;SDS011;3767;42.688;23.360;2023-01-24T19:07:41;13.00;;;6.37;;
7450;SDS011;3767;42.688;23.360;2023-01-24T19:10:10;9.47;;;5.97;;
7450;SDS011;3767;42.688;23.360;2023-01-24T19:12:38;12.63;;;7.00;;
7450;SDS011;3767;42.688;23.360;2023-01-24T19:15:05;10.70;;;6.33;;
7450;SDS011;3767;42.688;23.360;2023-01-24T19:17:31;14.10;;;6.70;;
7450;SDS011;3767;42.688;23.360;2023-01-24T19:19:58;8.57;;;6.07;;
7450;SDS011;3767;42.688;23.360;2023-01-24T19:22:24;12.93;;;8.10;;
7450;SDS011;3767;42.688;23.360;2023-01-24T19:24:51;15.53;;;7.23;;
7450;SDS011;3767;42.688;23.360;2023-01-24T19:27:18;12.03;;;7.20;;
7450;SDS011;3767;42.688;23.360;2023-01-24T19:29:46;8.73;;;5.77;;
7450;SDS011;3767;42.688;23.360;2023-01-24T19:32:12;10.87;;;7.00;;
7450;SDS011;3767;42.688;23.360;2023-01-24T19:34:38;16.93;;;8.70;;
7450;SDS011;3767;42.688;23.360;2023-01-24T19:37:07;17.03;;;8.77;;
7450;SDS011;3767;42.688;23.360;2023-01-24T19:39:34;18.07;;;8.93;;
7450;SDS011;3767;42.688;23.360;2023-01-24T19:42:00;10.27;;;6.50;;
7450;SDS011;3767;42.688;23.360;2023-01-24T19:44:26;11.27;;;6.47;;
7450;SDS011;3767;42.688;23.360;2023-01-24T19:46:54;9.67;;;6.23;;
7450;SDS011;3767;42.688;23.360;2023-01-24T19:49:21;13.70;;;6.70;;
7450;SDS011;3767;42.688;23.360;2023-01-24T19:51:47;11.00;;;6.60;;
7450;SDS011;3767;42.688;23.360;2023-01-24T19:54:14;13.83;;;6.70;;
7450;SDS011;3767;42.688;23.360;2023-01-24T19:56:41;12.90;;;7.53;;
7450;SDS011;3767;42.688;23.360;2023-01-24T19:59:07;15.30;;;7.93;;
7450;SDS011;3767;42.688;23.360;2023-01-24T20:01:34;17.73;;;8.00;;
7450;SDS011;3767;42.688;23.360;2023-01-24T20:04:02;15.53;;;9.10;;
7450;SDS011;3767;42.688;23.360;2023-01-24T20:06:28;37.03;;;18.57;;
7450;SDS011;3767;42.688;23.360;2023-01-24T20:08:55;19.40;;;10.47;;
7450;SDS011;3767;42.688;23.360;2023-01-24T20:11:22;19.13;;;10.43;;
7450;SDS011;3767;42.688;23.360;2023-01-24T20:13:49;21.67;;;11.80;;
7450;SDS011;3767;42.688;23.360;2023-01-24T20:16:20;21.90;;;12.73;;
7450;SDS011;3767;42.688;23.360;2023-01-24T20:18:47;21.17;;;12.63;;
7450;SDS011;3767;42.688;23.360;2023-01-24T20:21:15;28.63;;;14.50;;
7450;SDS011;3767;42.688;23.360;2023-01-24T20:23:42;26.40;;;14.03;;
7450;SDS011;3767;42.688;23.360;2023-01-24T20:26:09;29.73;;;15.10;;
7450;SDS011;3767;42.688;23.360;2023-01-24T20:28:36;27.70;;;14.00;;
7450;SDS011;3767;42.688;23.360;2023-01-24T20:31:03;29.40;;;13.97;;
7450;SDS011;3767;42.688;23.360;2023-01-24T20:33:29;21.43;;;11.00;;
7450;SDS011;3767;42.688;23.360;2023-01-24T20:35:57;17.37;;;10.07;;
7450;SDS011;3767;42.688;23.360;2023-01-24T20:38:25;14.30;;;8.23;;
7450;SDS011;3767;42.688;23.360;2023-01-24T20:40:54;13.77;;;8.33;;
7450;SDS011;3767;42.688;23.360;2023-01-24T20:43:21;14.17;;;8.47;;
7450;SDS011;3767;42.688;23.360;2023-01-24T20:45:47;18.57;;;10.80;;
7450;SDS011;3767;42.688;23.360;2023-01-24T20:48:13;19.33;;;11.47;;
7450;SDS011;3767;42.688;23.360;2023-01-24T20:50:40;19.67;;;11.33;;
7450;SDS011;3767;42.688;23.360;2023-01-24T20:53:06;18.60;;;11.13;;
7450;SDS011;3767;42.688;23.360;2023-01-24T20:55:34;17.87;;;10.53;;
7450;SDS011;3767;42.688;23.360;2023-01-24T20:58:01;21.43;;;11.00;;
7450;SDS011;3767;42.688;23.360;2023-01-24T21:00:27;15.23;;;8.97;;
7450;SDS011;3767;42.688;23.360;2023-01-24T21:02:54;16.67;;;8.60;;
7450;SDS011;3767;42.688;23.360;2023-01-24T21:05:21;10.60;;;6.93;;
7450;SDS011;3767;42.688;23.360;2023-01-24T21:07:48;15.00;;;7.23;;
7450;SDS011;3767;42.688;23.360;2023-01-24T21:10:14;11.97;;;6.60;;
7450;SDS011;3767;42.688;23.360;2023-01-24T21:12:42;10.93;;;6.60;;
7450;SDS011;3767;42.688;23.360;2023-01-24T21:15:08;10.40;;;6.33;;
7450;SDS011;3767;42.688;23.360;2023-01-24T21:17:35;17.30;;;7.80;;
7450;SDS011;3767;42.688;23.360;2023-01-24T21:20:02;15.33;;;7.13;;
7450;SDS011;3767;42.688;23.360;2023-01-24T21:22:28;11.40;;;6.47;;
7450;SDS011;3767;42.688;23.360;2023-01-24T21:24:55;16.97;;;8.07;;
7450;SDS011;3767;42.688;23.360;2023-01-24T21:27:21;15.47;;;8.17;;
7450;SDS011;3767;42.688;23.360;2023-01-24T21:29:49;9.50;;;5.43;;
7450;SDS011;3767;42.688;23.360;2023-01-24T21:32:15;7.00;;;4.70;;
7450;SDS011;3767;42.688;23.360;2023-01-24T21:34:42;9.63;;;5.93;;
7450;SDS011;3767;42.688;23.360;2023-01-24T21:37:08;10.30;;;5.50;;
7450;SDS011;3767;42.688;23.360;2023-01-24T21:39:35;7.97;;;5.30;;
7450;SDS011;3767;42.688;23.360;2023-01-24T21:42:01;10.50;;;6.33;;
7450;SDS011;3767;42.688;23.360;2023-01-24T21:44:29;8.40;;;5.77;;
7450;SDS011;3767;42.688;23.360;2023-01-24T21:46:57;5.87;;;4.57;;
7450;SDS011;3767;42.688;23.360;2023-01-24T21:49:23;4.37;;;3.97;;
7450;SDS011;3767;42.688;23.360;2023-01-24T21:51:50;6.57;;;4.80;;
